Chattaroy, West Virginia
Current Conditions -  °F | °C
As of 6:55 AM on Thursday 27 Nov 2014 (Local Time) from KPBX Reporting Station
Overcast Overcast  
Wind Chill: 26°   Ceiling: 800
Heat Index: 32°   Visibility: 10mi
Dew Point: 30°   Wind: 6mph
Humidity: 91%   Direction: 340°NNW
Pressure: 30.07"   Gusts: NA
Location:  37.71°N, 82.27°W
Report Text: KPBX 271155Z AUTO 34005KT 10SM OVC008 00/M01 A3007 RMK AO2 T00001013 10023 20000
Loading
Personal Weather Stations






























Interactive Weather Map New forecast layout! Learn more

10-Day Weather Forecast

Advertisements
Track Severe Weather on mobile